Terminal Aerodrome Forecast
Issued by NWS Sioux Falls, SD

Home | Current Version | Previous Version | Text Only | Print | Product List | Glossary Off
Versions: 1 2 3 4 5 6 7 8 9 10 11 12

000
FTUS43 KFSD 250004 RRA
TAFFSD
TAF
KFSD 250004Z 2500/2524 14006KT P6SM FEW050
     FM251200 16012KT P6SM SKC
     FM251500 17014G23KT P6SM FEW150
     FM251900 18013G19KT P6SM BKN050
     FM252100 19010KT P6SM BKN045=

USA.gov is the U.S. government's official web portal to all federal, state and local government web resources and services.